Time;durP1;ratioP1;P1;durP2;ratioP2;P2;SDS_P1;SDS_P2;PMS_P1;PMS_P2;Temp;Humidity;BMP_temperature;BMP_pressure;BME280_temperature;BME280_humidity;BME280_pressure;Samples;Min_cycle;Max_cycle;Signal;HPM_P1;HPM_P2
2022/07/25 00:02:03;;;;;;;10.18;6.70;;;;;;;;;;5025634;28;20433;-78
2022/07/25 00:04:29;;;;;;;7.95;6.05;;;;;;;;;;5028771;28;20060;-80
2022/07/25 00:06:56;;;;;;;8.18;6.82;;;;;;;;;;5030817;28;20452;-82
2022/07/25 00:09:22;;;;;;;6.72;5.82;;;;;;;;;;5022782;28;20033;-76
2022/07/25 00:11:48;;;;;;;10.30;6.75;;;;;;;;;;5023683;28;20052;-79
2022/07/25 00:14:14;;;;;;;7.53;6.30;;;;;;;;;;5021991;28;20030;-77
2022/07/25 00:16:40;;;;;;;7.30;6.10;;;;;;;;;;5027867;28;20022;-74
2022/07/25 00:19:06;;;;;;;7.05;6.03;;;;;;;;;;5020485;28;20109;-76
2022/07/25 00:21:32;;;;;;;8.43;6.28;;;;;;;;;;5016799;28;20030;-81
2022/07/25 00:23:58;;;;;;;7.88;6.28;;;;;;;;;;5029163;28;20076;-76
2022/07/25 00:26:24;;;;;;;9.55;6.53;;;;;;;;;;5021391;28;20133;-75
2022/07/25 00:28:50;;;;;;;9.07;6.60;;;;;;;;;;5020534;28;20018;-76
2022/07/25 00:31:16;;;;;;;7.05;6.35;;;;;;;;;;5018909;28;20048;-79
2022/07/25 00:33:42;;;;;;;7.68;6.25;;;;;;;;;;5020519;28;20446;-77
2022/07/25 00:36:09;;;;;;;7.40;6.60;;;;;;;;;;5014997;28;20076;-79
2022/07/25 00:38:35;;;;;;;6.63;5.95;;;;;;;;;;5026964;28;20177;-74
2022/07/25 00:41:02;;;;;;;7.03;5.93;;;;;;;;;;5029006;28;20109;-75
2022/07/25 00:43:28;;;;;;;7.25;6.18;;;;;;;;;;5028699;28;20392;-80
2022/07/25 00:45:57;;;;;;;8.68;6.40;;;;;;;;;;5019714;28;20029;-74
2022/07/25 00:48:23;;;;;;;6.65;5.93;;;;;;;;;;5030904;28;20767;-76
2022/07/25 00:50:49;;;;;;;7.72;5.68;;;;;;;;;;5024687;28;20364;-75
2022/07/25 00:53:15;;;;;;;7.63;5.85;;;;;;;;;;5018509;28;20435;-77
2022/07/25 00:55:41;;;;;;;7.22;5.88;;;;;;;;;;5019307;28;20029;-75
2022/07/25 00:58:07;;;;;;;6.65;5.57;;;;;;;;;;5020125;28;20061;-79
2022/07/25 01:00:33;;;;;;;7.70;5.43;;;;;;;;;;5022381;28;20029;-79
2022/07/25 01:03:00;;;;;;;7.10;5.90;;;;;;;;;;5034755;28;20037;-79
2022/07/25 01:05:26;;;;;;;6.45;5.30;;;;;;;;;;5027332;28;20033;-78
2022/07/25 01:07:57;;;;;;;6.95;5.57;;;;;;;;;;5038452;28;20037;-79
2022/07/25 01:10:23;;;;;;;6.20;5.38;;;;;;;;;;5020232;28;20029;-76
2022/07/25 01:12:50;;;;;;;6.55;5.60;;;;;;;;;;5022029;28;20079;-77
2022/07/25 01:15:25;;;;;;;6.10;5.32;;;;;;;;;;5032198;28;20386;-75
2022/07/25 01:17:52;;;;;;;7.43;5.53;;;;;;;;;;5014294;28;20410;-78
2022/07/25 01:20:21;;;;;;;6.10;5.40;;;;;;;;;;5018613;28;20067;-74
2022/07/25 01:22:47;;;;;;;7.65;5.80;;;;;;;;;;5013842;28;20100;-74
2022/07/25 01:25:14;;;;;;;6.85;5.53;;;;;;;;;;5019174;28;20022;-78
2022/07/25 01:27:40;;;;;;;10.43;6.05;;;;;;;;;;5023500;28;20049;-78
2022/07/25 01:30:07;;;;;;;8.38;5.55;;;;;;;;;;5025554;28;20025;-73
2022/07/25 01:32:34;;;;;;;6.75;5.68;;;;;;;;;;5021969;28;20034;-78
2022/07/25 01:35:00;;;;;;;8.10;5.53;;;;;;;;;;5013145;28;20026;-79
2022/07/25 01:37:26;;;;;;;5.93;5.10;;;;;;;;;;5023415;28;20121;-76
2022/07/25 01:39:52;;;;;;;9.50;4.93;;;;;;;;;;5023791;28;20030;-75
2022/07/25 01:42:18;;;;;;;8.25;5.80;;;;;;;;;;5016968;28;20034;-80
2022/07/25 01:44:44;;;;;;;5.97;4.85;;;;;;;;;;5025019;28;20030;-75
2022/07/25 01:47:10;;;;;;;7.45;5.25;;;;;;;;;;5025121;28;20025;-78
2022/07/25 01:49:36;;;;;;;5.78;5.18;;;;;;;;;;5016098;28;20041;-78
2022/07/25 01:52:03;;;;;;;12.93;5.60;;;;;;;;;;5020572;28;20033;-78
2022/07/25 01:54:41;;;;;;;6.57;5.43;;;;;;;;;;5026098;28;20029;-79
2022/07/25 01:57:07;;;;;;;11.07;5.28;;;;;;;;;;5043076;28;20033;-77
2022/07/25 01:59:36;;;;;;;9.18;5.10;;;;;;;;;;5026447;28;20510;-73
2022/07/25 02:02:02;;;;;;;7.50;5.32;;;;;;;;;;5030532;28;20037;-79
2022/07/25 02:04:29;;;;;;;9.57;5.43;;;;;;;;;;5023827;28;20026;-79
2022/07/25 02:06:55;;;;;;;5.60;5.00;;;;;;;;;;5033462;28;20508;-81
2022/07/25 02:09:21;;;;;;;5.80;5.20;;;;;;;;;;5019093;28;20136;-74
2022/07/25 02:11:47;;;;;;;8.95;5.20;;;;;;;;;;5027322;28;20057;-76
2022/07/25 02:14:13;;;;;;;6.47;5.70;;;;;;;;;;5022803;28;20029;-81
2022/07/25 02:16:39;;;;;;;6.38;5.30;;;;;;;;;;5019125;28;20030;-80
2022/07/25 02:19:05;;;;;;;5.13;4.53;;;;;;;;;;5025730;28;20076;-75
2022/07/25 02:21:31;;;;;;;6.95;5.03;;;;;;;;;;5018384;28;20089;-80
2022/07/25 02:23:57;;;;;;;6.63;5.03;;;;;;;;;;5027403;28;20360;-73
2022/07/25 02:26:23;;;;;;;6.82;4.78;;;;;;;;;;5028967;28;20052;-78
2022/07/25 02:28:49;;;;;;;7.93;5.07;;;;;;;;;;5027676;28;20068;-80
2022/07/25 02:31:15;;;;;;;8.02;5.15;;;;;;;;;;5015783;28;20032;-79
2022/07/25 02:33:42;;;;;;;6.05;5.03;;;;;;;;;;5028197;28;20026;-77
2022/07/25 02:36:08;;;;;;;6.25;5.07;;;;;;;;;;5031506;28;20021;-79
2022/07/25 02:38:34;;;;;;;6.18;4.95;;;;;;;;;;5021248;28;20029;-79
2022/07/25 02:41:01;;;;;;;9.90;5.72;;;;;;;;;;5026784;28;20030;-79
2022/07/25 02:43:27;;;;;;;8.38;5.05;;;;;;;;;;5023925;28;20499;-74
2022/07/25 02:45:53;;;;;;;7.55;5.18;;;;;;;;;;5022433;28;20030;-78
2022/07/25 02:48:19;;;;;;;8.82;5.10;;;;;;;;;;5027165;28;20029;-79
2022/07/25 02:50:45;;;;;;;6.50;5.05;;;;;;;;;;5020763;28;20113;-79
2022/07/25 02:53:11;;;;;;;6.72;5.07;;;;;;;;;;5015449;28;20483;-81
2022/07/25 02:55:37;;;;;;;6.57;5.00;;;;;;;;;;5020463;28;20017;-76
2022/07/25 02:58:03;;;;;;;8.50;5.30;;;;;;;;;;5028152;28;20022;-79
2022/07/25 03:00:29;;;;;;;9.02;5.13;;;;;;;;;;5028998;28;20402;-75
2022/07/25 03:02:56;;;;;;;13.98;5.35;;;;;;;;;;5018960;28;20100;-75
2022/07/25 03:05:22;;;;;;;10.90;4.80;;;;;;;;;;5018477;28;20046;-78
2022/07/25 03:07:48;;;;;;;6.35;5.00;;;;;;;;;;5020483;28;20021;-77
2022/07/25 03:10:14;;;;;;;6.20;5.00;;;;;;;;;;5027344;28;20160;-80
2022/07/25 03:12:41;;;;;;;8.05;4.75;;;;;;;;;;5014839;28;20438;-80
2022/07/25 03:15:07;;;;;;;7.72;5.18;;;;;;;;;;5019451;28;20406;-75
2022/07/25 03:17:34;;;;;;;7.97;4.88;;;;;;;;;;5025581;28;20029;-76
2022/07/25 03:20:00;;;;;;;5.40;4.70;;;;;;;;;;5030471;28;20537;-79
2022/07/25 03:22:26;;;;;;;7.28;4.97;;;;;;;;;;5027016;28;20467;-81
2022/07/25 03:24:59;;;;;;;8.70;5.32;;;;;;;;;;5016725;28;20025;-80
2022/07/25 03:27:25;;;;;;;6.30;5.20;;;;;;;;;;5025764;28;20049;-81
2022/07/25 03:29:53;;;;;;;7.28;4.70;;;;;;;;;;5023595;28;20022;-83
2022/07/25 03:32:19;;;;;;;7.80;5.55;;;;;;;;;;5024906;28;20038;-83
2022/07/25 03:34:45;;;;;;;6.97;5.22;;;;;;;;;;5014537;28;20029;-75
2022/07/25 03:37:11;;;;;;;6.35;4.80;;;;;;;;;;5022014;28;20033;-74
2022/07/25 03:39:37;;;;;;;9.77;4.90;;;;;;;;;;5027137;28;20037;-75
2022/07/25 03:42:03;;;;;;;5.93;4.65;;;;;;;;;;5020981;28;20037;-75
2022/07/25 03:44:36;;;;;;;7.00;5.15;;;;;;;;;;5027159;28;20502;-79
2022/07/25 03:47:03;;;;;;;8.50;5.45;;;;;;;;;;5038202;28;20034;-80
2022/07/25 03:49:29;;;;;;;8.02;4.72;;;;;;;;;;5030038;28;20091;-78
2022/07/25 03:51:55;;;;;;;6.55;4.57;;;;;;;;;;5017107;28;20025;-73
2022/07/25 03:54:21;;;;;;;6.20;4.68;;;;;;;;;;5024526;28;20034;-79
2022/07/25 03:56:49;;;;;;;5.75;5.03;;;;;;;;;;5021076;28;20152;-75
2022/07/25 03:59:16;;;;;;;5.55;4.53;;;;;;;;;;5028411;28;20049;-79
2022/07/25 04:01:44;;;;;;;5.95;4.80;;;;;;;;;;5021686;28;20083;-74
2022/07/25 04:04:10;;;;;;;5.72;4.55;;;;;;;;;;5024054;28;20030;-77
2022/07/25 04:06:36;;;;;;;8.35;4.43;;;;;;;;;;5029398;28;20122;-75
2022/07/25 04:09:03;;;;;;;8.45;4.70;;;;;;;;;;5024799;28;20029;-76
2022/07/25 04:11:42;;;;;;;;;;;;;;;;;;;;;
2022/07/25 04:14:08;;;;;;;7.40;5.22;;;;;;;;;;5019802;28;20026;-77
2022/07/25 04:16:34;;;;;;;6.63;4.93;;;;;;;;;;5017820;28;20054;-78
2022/07/25 04:19:00;;;;;;;7.15;5.10;;;;;;;;;;5019243;28;20028;-78
2022/07/25 04:21:26;;;;;;;7.45;5.13;;;;;;;;;;5035011;28;20042;-74
2022/07/25 04:23:52;;;;;;;5.95;4.65;;;;;;;;;;5024980;28;20022;-75
2022/07/25 04:26:18;;;;;;;6.90;5.10;;;;;;;;;;5027637;28;20045;-74
2022/07/25 04:28:45;;;;;;;6.32;5.00;;;;;;;;;;5029880;28;20033;-83
2022/07/25 04:34:13;;;;;;;9.85;5.63;;;;;;;;;;5028310;28;20095;-70
2022/07/25 04:36:39;;;;;;;15.13;5.85;;;;;;;;;;5026404;28;20018;-70
2022/07/25 04:39:05;;;;;;;11.50;5.72;;;;;;;;;;5030466;28;20030;-69
2022/07/25 04:41:31;;;;;;;8.77;5.55;;;;;;;;;;5027102;28;20127;-76
2022/07/25 04:43:57;;;;;;;10.60;5.65;;;;;;;;;;5021506;28;20017;-71
2022/07/25 04:46:25;;;;;;;11.13;5.28;;;;;;;;;;5022567;28;20030;-73
2022/07/25 04:48:52;;;;;;;11.68;5.55;;;;;;;;;;5019397;28;20029;-79
2022/07/25 04:51:18;;;;;;;9.68;5.60;;;;;;;;;;5044078;28;20551;-72
2022/07/25 04:53:47;;;;;;;7.85;5.68;;;;;;;;;;5025309;28;20357;-71
2022/07/25 04:56:13;;;;;;;9.35;5.53;;;;;;;;;;5022323;28;20023;-73
2022/07/25 04:58:39;;;;;;;5.82;4.72;;;;;;;;;;5023492;28;20033;-72
2022/07/25 05:01:06;;;;;;;11.55;7.47;;;;;;;;;;5018757;28;20121;-72
2022/07/25 05:03:32;;;;;;;9.52;5.80;;;;;;;;;;5025463;28;20029;-72
2022/07/25 05:05:58;;;;;;;7.00;5.60;;;;;;;;;;5024302;28;20029;-72
2022/07/25 05:08:24;;;;;;;7.72;5.57;;;;;;;;;;5026598;28;20048;-77
2022/07/25 05:10:50;;;;;;;8.95;5.60;;;;;;;;;;5023181;28;20018;-77
2022/07/25 05:13:16;;;;;;;11.60;5.93;;;;;;;;;;5018524;28;20112;-74
2022/07/25 05:15:42;;;;;;;7.00;5.60;;;;;;;;;;5021528;28;20029;-75
2022/07/25 05:18:08;;;;;;;7.80;5.80;;;;;;;;;;5027496;28;20033;-72
2022/07/25 05:20:34;;;;;;;7.20;6.03;;;;;;;;;;5019802;28;20453;-74
2022/07/25 05:23:01;;;;;;;8.13;5.90;;;;;;;;;;5019595;28;20029;-71
2022/07/25 05:25:28;;;;;;;8.90;6.20;;;;;;;;;;5028888;28;20491;-69
2022/07/25 05:27:56;;;;;;;9.05;6.60;;;;;;;;;;5028231;28;20033;-72
2022/07/25 05:30:22;;;;;;;8.80;6.60;;;;;;;;;;5026529;28;20032;-71
2022/07/25 05:32:48;;;;;;;10.75;6.63;;;;;;;;;;5046882;28;20021;-71
2022/07/25 05:35:14;;;;;;;13.27;7.03;;;;;;;;;;5024330;28;20031;-72
2022/07/25 05:37:41;;;;;;;7.65;6.00;;;;;;;;;;5020866;28;20022;-70
2022/07/25 05:40:07;;;;;;;10.23;5.90;;;;;;;;;;5021145;28;20542;-71
2022/07/25 05:42:36;;;;;;;6.93;5.85;;;;;;;;;;5025560;28;20034;-70
2022/07/25 05:45:02;;;;;;;9.35;6.13;;;;;;;;;;5022233;28;20053;-70
2022/07/25 05:47:28;;;;;;;8.43;6.97;;;;;;;;;;5016526;28;20033;-70
2022/07/25 05:49:55;;;;;;;15.52;6.57;;;;;;;;;;5018463;28;20033;-72
2022/07/25 05:52:21;;;;;;;8.18;6.28;;;;;;;;;;5027097;28;20026;-75
2022/07/25 05:54:47;;;;;;;10.23;6.32;;;;;;;;;;5023520;28;20037;-72
2022/07/25 05:57:13;;;;;;;8.48;6.72;;;;;;;;;;5029148;28;20022;-75
2022/07/25 05:59:39;;;;;;;8.13;6.55;;;;;;;;;;5026259;28;20087;-73
2022/07/25 06:02:06;;;;;;;9.07;6.65;;;;;;;;;;5027001;28;20426;-72
2022/07/25 06:04:34;;;;;;;9.43;6.80;;;;;;;;;;5028396;28;20476;-73
2022/07/25 06:07:00;;;;;;;10.98;6.60;;;;;;;;;;5020009;28;20422;-74
2022/07/25 06:09:26;;;;;;;11.57;6.65;;;;;;;;;;5029250;28;20594;-74
2022/07/25 06:11:52;;;;;;;7.47;6.40;;;;;;;;;;5022714;28;20079;-69
2022/07/25 06:14:19;;;;;;;10.27;6.70;;;;;;;;;;5036671;28;20431;-70
2022/07/25 06:16:45;;;;;;;8.23;7.00;;;;;;;;;;5018392;28;20712;-73
2022/07/25 06:19:11;;;;;;;11.13;6.85;;;;;;;;;;5023000;28;20475;-72
2022/07/25 06:21:37;;;;;;;8.75;6.82;;;;;;;;;;5027845;28;20503;-78
2022/07/25 06:24:04;;;;;;;12.60;6.43;;;;;;;;;;5030516;28;20026;-72
2022/07/25 06:26:30;;;;;;;10.40;6.63;;;;;;;;;;5019971;28;20419;-71
2022/07/25 06:28:56;;;;;;;9.50;7.20;;;;;;;;;;5029101;28;20045;-71
2022/07/25 06:31:25;;;;;;;10.38;6.53;;;;;;;;;;5019289;28;20036;-73
2022/07/25 06:33:52;;;;;;;7.97;6.28;;;;;;;;;;5019908;28;20551;-71
2022/07/25 06:36:18;;;;;;;10.02;6.40;;;;;;;;;;5024048;28;20395;-71
2022/07/25 06:38:44;;;;;;;9.85;6.57;;;;;;;;;;5031028;28;20057;-70
2022/07/25 06:41:14;;;;;;;7.65;6.53;;;;;;;;;;5030338;28;20038;-72
2022/07/25 06:43:40;;;;;;;9.18;6.60;;;;;;;;;;5048576;28;20032;-72
2022/07/25 06:46:06;;;;;;;7.97;6.63;;;;;;;;;;5033850;28;20172;-71
2022/07/25 06:48:32;;;;;;;8.57;6.82;;;;;;;;;;5019775;28;20030;-71
2022/07/25 06:50:58;;;;;;;8.48;6.53;;;;;;;;;;5034944;28;20029;-72
2022/07/25 06:53:24;;;;;;;13.82;6.70;;;;;;;;;;5032489;28;20529;-72
2022/07/25 06:55:51;;;;;;;8.02;6.38;;;;;;;;;;5024525;28;20128;-71
2022/07/25 06:58:17;;;;;;;12.50;6.95;;;;;;;;;;5022139;28;20058;-71
2022/07/25 07:00:43;;;;;;;8.15;6.72;;;;;;;;;;5032578;28;20032;-72
2022/07/25 07:03:09;;;;;;;7.05;6.28;;;;;;;;;;5028251;28;20025;-73
2022/07/25 12:09:18;;;;;;;6.50;5.90;;;;;;;;;;5145823;27;20398;-75
2022/07/25 12:11:44;;;;;;;7.88;6.22;;;;;;;;;;5121339;27;20077;-75
2022/07/25 12:14:12;;;;;;;7.47;5.55;;;;;;;;;;5121321;27;20027;-73
2022/07/25 12:16:38;;;;;;;7.07;5.50;;;;;;;;;;5127370;27;20081;-82
2022/07/25 12:19:08;;;;;;;6.68;5.53;;;;;;;;;;5116567;28;20023;-79
2022/07/25 12:21:35;;;;;;;6.95;5.60;;;;;;;;;;5113903;27;20019;-77
2022/07/25 12:24:01;;;;;;;6.28;5.68;;;;;;;;;;5099901;28;20073;-82
2022/07/25 12:26:27;;;;;;;6.60;5.45;;;;;;;;;;5123063;27;20103;-83
2022/07/25 12:28:53;;;;;;;8.20;6.00;;;;;;;;;;5122770;27;20487;-84
2022/07/25 12:46:23;;;;;;;6.85;5.75;;;;;;;;;;5139162;27;20403;-74
2022/07/25 12:48:49;;;;;;;7.88;6.50;;;;;;;;;;5134668;27;20468;-76
2022/07/25 12:51:15;;;;;;;8.63;6.13;;;;;;;;;;5135087;27;20493;-76
2022/07/25 12:53:41;;;;;;;7.75;5.65;;;;;;;;;;5141839;27;20031;-75
2022/07/25 12:56:07;;;;;;;8.75;6.40;;;;;;;;;;5132122;27;20477;-74
2022/07/25 12:58:33;;;;;;;9.45;5.88;;;;;;;;;;5142235;27;20552;-74
2022/07/25 13:00:59;;;;;;;6.57;5.80;;;;;;;;;;5132544;27;20031;-74
2022/07/25 13:03:26;;;;;;;6.80;5.70;;;;;;;;;;5141275;27;20095;-76
2022/07/25 13:05:52;;;;;;;59.40;9.48;;;;;;;;;;5120095;27;20391;-75
2022/07/25 13:08:18;;;;;;;22.88;7.20;;;;;;;;;;5134525;27;20030;-80
2022/07/25 13:10:44;;;;;;;20.60;7.22;;;;;;;;;;5131627;27;20140;-75
2022/07/25 13:13:10;;;;;;;6.57;5.70;;;;;;;;;;5134048;27;20146;-77
2022/07/25 13:15:36;;;;;;;8.80;6.07;;;;;;;;;;5132023;27;20672;-75
2022/07/25 13:18:03;;;;;;;13.95;6.20;;;;;;;;;;5131041;27;20023;-71
2022/07/25 13:20:30;;;;;;;7.13;5.88;;;;;;;;;;5136544;27;20047;-74
2022/07/25 13:22:56;;;;;;;18.45;6.45;;;;;;;;;;5133871;27;20480;-72
2022/07/25 13:25:22;;;;;;;12.93;6.45;;;;;;;;;;5138501;27;20109;-73
2022/07/25 13:27:48;;;;;;;14.93;6.20;;;;;;;;;;5114840;27;20487;-74
2022/07/25 13:30:15;;;;;;;11.23;6.40;;;;;;;;;;5136028;27;20571;-71
2022/07/25 13:32:41;;;;;;;7.60;5.85;;;;;;;;;;5146049;27;20023;-79
2022/07/25 13:35:07;;;;;;;8.18;6.30;;;;;;;;;;5121414;27;20415;-76
2022/07/25 13:37:33;;;;;;;7.78;5.50;;;;;;;;;;5121177;28;20026;-70
2022/07/25 13:39:59;;;;;;;37.47;7.85;;;;;;;;;;5115521;28;20033;-75
2022/07/25 13:42:25;;;;;;;12.88;6.95;;;;;;;;;;5122237;28;20028;-72
2022/07/25 13:44:51;;;;;;;6.88;5.60;;;;;;;;;;5121871;28;20092;-83
2022/07/25 13:47:18;;;;;;;10.02;6.45;;;;;;;;;;5104265;28;20050;-83
2022/07/25 13:49:44;;;;;;;17.17;6.78;;;;;;;;;;5111300;28;20023;-80
2022/07/25 13:52:10;;;;;;;10.05;6.15;;;;;;;;;;5106382;28;20023;-76
2022/07/25 13:54:36;;;;;;;6.65;5.90;;;;;;;;;;5107886;28;20036;-74
2022/07/25 13:57:02;;;;;;;7.03;6.30;;;;;;;;;;5111013;28;20109;-75
2022/07/25 13:59:28;;;;;;;8.35;5.97;;;;;;;;;;5100705;28;20045;-82
2022/07/25 14:01:55;;;;;;;6.60;6.00;;;;;;;;;;5105161;28;20024;-78
2022/07/25 14:04:21;;;;;;;10.48;6.00;;;;;;;;;;5102983;28;20044;-75
2022/07/25 14:06:50;;;;;;;7.32;5.93;;;;;;;;;;5109509;28;20393;-73
2022/07/25 14:09:17;;;;;;;10.32;5.90;;;;;;;;;;5087829;28;20034;-72
2022/07/25 14:11:43;;;;;;;9.32;6.20;;;;;;;;;;5107654;28;20491;-71
2022/07/25 14:14:10;;;;;;;9.75;6.00;;;;;;;;;;5105602;28;20373;-73
2022/07/25 14:16:36;;;;;;;7.45;6.03;;;;;;;;;;5102250;28;20400;-81
2022/07/25 14:19:02;;;;;;;8.25;5.93;;;;;;;;;;5107478;28;20024;-83
2022/07/25 14:21:28;;;;;;;11.88;5.90;;;;;;;;;;5084356;28;20031;-82
2022/07/25 14:23:54;;;;;;;6.97;5.60;;;;;;;;;;5086322;28;20107;-81
2022/07/25 14:26:20;;;;;;;7.43;5.70;;;;;;;;;;5105669;28;20023;-82
2022/07/25 14:28:46;;;;;;;6.63;6.00;;;;;;;;;;5102994;28;20191;-72
2022/07/25 14:31:12;;;;;;;6.18;5.57;;;;;;;;;;5083102;28;20032;-72
2022/07/25 14:33:39;;;;;;;8.57;6.15;;;;;;;;;;5080340;28;20028;-74
2022/07/25 14:36:09;;;;;;;7.65;5.95;;;;;;;;;;5107955;28;20111;-76
2022/07/25 14:38:35;;;;;;;12.02;6.45;;;;;;;;;;5102121;28;20111;-74
2022/07/25 14:41:01;;;;;;;6.70;5.90;;;;;;;;;;5104177;28;20032;-81
2022/07/25 14:43:27;;;;;;;7.07;6.05;;;;;;;;;;5108929;28;20043;-84
2022/07/25 14:45:53;;;;;;;6.60;5.90;;;;;;;;;;5104581;28;20059;-82
2022/07/25 14:48:19;;;;;;;7.60;6.07;;;;;;;;;;5083811;28;20077;-80
2022/07/25 14:50:45;;;;;;;7.40;5.35;;;;;;;;;;5106905;28;20031;-81
2022/07/25 14:53:12;;;;;;;11.85;5.95;;;;;;;;;;5107106;28;20081;-83
2022/07/25 14:55:38;;;;;;;10.10;5.60;;;;;;;;;;5101401;28;20089;-82
2022/07/25 14:58:04;;;;;;;17.13;6.05;;;;;;;;;;5080598;28;20469;-83
2022/07/25 15:00:32;;;;;;;12.48;5.60;;;;;;;;;;5083936;28;20092;-73
2022/07/25 15:02:58;;;;;;;13.82;5.97;;;;;;;;;;5103050;28;20020;-79
2022/07/25 15:05:25;;;;;;;6.43;5.80;;;;;;;;;;5105430;28;21816;-74
2022/07/25 15:07:51;;;;;;;6.82;5.57;;;;;;;;;;5084711;28;20074;-73
2022/07/25 15:10:17;;;;;;;11.80;5.95;;;;;;;;;;5102434;28;20048;-73
2022/07/25 15:12:43;;;;;;;10.18;6.15;;;;;;;;;;5103427;28;20023;-75
2022/07/25 15:15:10;;;;;;;11.80;5.80;;;;;;;;;;5100401;28;20370;-73
2022/07/25 15:17:46;;;;;;;6.10;5.50;;;;;;;;;;5101631;28;20026;-74
2022/07/25 15:20:12;;;;;;;7.03;5.85;;;;;;;;;;5091435;28;20551;-77
2022/07/25 15:22:38;;;;;;;8.38;5.78;;;;;;;;;;5106475;28;20126;-75
2022/07/25 15:25:04;;;;;;;10.13;5.80;;;;;;;;;;5100169;28;20038;-75
2022/07/25 15:27:31;;;;;;;8.40;6.15;;;;;;;;;;5108763;28;20102;-72
2022/07/25 15:29:57;;;;;;;6.75;5.57;;;;;;;;;;5082858;28;20032;-74
2022/07/25 15:32:23;;;;;;;6.28;5.63;;;;;;;;;;5106014;28;20028;-74
2022/07/25 15:34:49;;;;;;;8.57;5.72;;;;;;;;;;5108098;28;20123;-75
2022/07/25 15:37:15;;;;;;;11.85;6.25;;;;;;;;;;5088737;28;20052;-72
2022/07/25 15:39:43;;;;;;;15.20;6.28;;;;;;;;;;5104060;28;20058;-71
2022/07/25 15:42:09;;;;;;;7.90;5.80;;;;;;;;;;5104451;28;20473;-80
2022/07/25 15:44:35;;;;;;;6.85;5.82;;;;;;;;;;5102039;28;20409;-69
2022/07/25 15:47:01;;;;;;;6.28;5.40;;;;;;;;;;5108502;28;20500;-75
2022/07/25 15:49:27;;;;;;;6.57;5.60;;;;;;;;;;5110054;28;20396;-76
2022/07/25 15:51:53;;;;;;;6.40;5.70;;;;;;;;;;5084355;28;20084;-72
2022/07/25 15:54:19;;;;;;;9.70;5.72;;;;;;;;;;5109496;28;20024;-69
2022/07/25 15:56:45;;;;;;;6.25;5.30;;;;;;;;;;5096715;28;20033;-75
2022/07/25 15:59:12;;;;;;;14.25;6.25;;;;;;;;;;5100711;28;20529;-72
2022/07/25 16:01:38;;;;;;;6.70;5.63;;;;;;;;;;5103453;28;20454;-70
2022/07/25 16:04:04;;;;;;;6.07;5.47;;;;;;;;;;5085371;28;20024;-70
2022/07/25 16:06:30;;;;;;;12.70;6.43;;;;;;;;;;5103206;28;20430;-69
2022/07/25 16:09:05;;;;;;;7.47;5.78;;;;;;;;;;5100999;28;20476;-71
2022/07/25 16:11:31;;;;;;;9.32;5.90;;;;;;;;;;5086217;28;20601;-70
2022/07/25 16:13:57;;;;;;;7.97;5.90;;;;;;;;;;5109438;28;20130;-70
2022/07/25 16:16:24;;;;;;;8.63;6.40;;;;;;;;;;5106768;27;20451;-68
2022/07/25 16:18:50;;;;;;;10.00;6.00;;;;;;;;;;5097814;28;20028;-69
2022/07/25 16:21:17;;;;;;;7.22;5.68;;;;;;;;;;5103751;28;20026;-73
2022/07/25 16:23:43;;;;;;;21.42;6.55;;;;;;;;;;5104531;28;20042;-75
2022/07/25 16:26:10;;;;;;;9.27;5.65;;;;;;;;;;5100515;28;20644;-73
2022/07/25 16:28:37;;;;;;;6.22;5.55;;;;;;;;;;5099901;28;20053;-72
2022/07/25 16:31:04;;;;;;;6.85;5.80;;;;;;;;;;5108246;28;20035;-72
2022/07/25 16:33:30;;;;;;;8.70;6.30;;;;;;;;;;5101004;28;20085;-70
2022/07/25 16:35:56;;;;;;;10.10;6.05;;;;;;;;;;5100906;28;20039;-74
2022/07/25 16:38:23;;;;;;;15.13;5.78;;;;;;;;;;5081831;28;20023;-75
2022/07/25 16:40:49;;;;;;;6.55;5.60;;;;;;;;;;5099934;28;20492;-70
2022/07/25 16:43:15;;;;;;;9.60;6.25;;;;;;;;;;5096910;28;20015;-71
2022/07/25 16:45:41;;;;;;;8.27;6.28;;;;;;;;;;5098913;28;20105;-72
2022/07/25 16:48:07;;;;;;;10.55;5.82;;;;;;;;;;5102255;28;20031;-77
2022/07/25 16:50:34;;;;;;;14.18;6.10;;;;;;;;;;5102847;28;20035;-74
2022/07/25 16:53:00;;;;;;;10.40;6.13;;;;;;;;;;5104432;28;20027;-79
2022/07/25 16:55:26;;;;;;;12.60;6.40;;;;;;;;;;5100329;28;20036;-73
2022/07/25 16:57:52;;;;;;;7.60;5.63;;;;;;;;;;5106865;28;20016;-74
2022/07/25 17:00:19;;;;;;;7.40;5.40;;;;;;;;;;5094571;28;20493;-78
2022/07/25 17:02:45;;;;;;;7.43;5.63;;;;;;;;;;5102723;28;20511;-72
2022/07/25 17:05:11;;;;;;;10.00;6.18;;;;;;;;;;5104214;28;20052;-78
2022/07/25 17:07:38;;;;;;;7.53;5.88;;;;;;;;;;5103477;28;20019;-79
2022/07/25 17:10:05;;;;;;;10.93;6.18;;;;;;;;;;5101706;28;20111;-74
2022/07/25 17:12:32;;;;;;;11.18;6.30;;;;;;;;;;5104218;28;20020;-77
2022/07/25 17:14:58;;;;;;;14.80;6.00;;;;;;;;;;5085092;28;20063;-74
2022/07/25 17:17:24;;;;;;;9.57;6.20;;;;;;;;;;5098600;28;20103;-75
2022/07/25 17:19:50;;;;;;;9.13;6.18;;;;;;;;;;5096217;28;20020;-73
2022/07/25 17:22:16;;;;;;;9.70;5.90;;;;;;;;;;5096813;28;20048;-72
2022/07/25 17:24:42;;;;;;;10.30;6.25;;;;;;;;;;5104902;28;20092;-75
2022/07/25 17:27:08;;;;;;;7.43;6.43;;;;;;;;;;5108824;28;20368;-78
2022/07/25 17:29:35;;;;;;;11.18;6.53;;;;;;;;;;5105769;28;20028;-75
2022/07/25 17:32:01;;;;;;;10.30;6.35;;;;;;;;;;5105925;28;20414;-75
2022/07/25 17:34:27;;;;;;;8.32;6.75;;;;;;;;;;5104510;28;20457;-74
2022/07/25 17:36:54;;;;;;;8.73;5.90;;;;;;;;;;5107735;28;20408;-74
2022/07/25 17:39:20;;;;;;;9.10;6.38;;;;;;;;;;5100207;28;20028;-77
2022/07/25 17:41:46;;;;;;;7.85;6.15;;;;;;;;;;5107714;28;20023;-72
2022/07/25 17:44:12;;;;;;;9.85;6.55;;;;;;;;;;5111086;28;20128;-75
2022/07/25 17:46:38;;;;;;;7.57;6.10;;;;;;;;;;5111713;28;20048;-76
2022/07/25 17:49:04;;;;;;;11.68;6.57;;;;;;;;;;5103822;28;20054;-76
2022/07/25 17:51:30;;;;;;;11.13;6.45;;;;;;;;;;5106320;28;20016;-74
2022/07/25 17:53:56;;;;;;;11.25;6.35;;;;;;;;;;5088802;28;20028;-74
2022/07/25 17:56:22;;;;;;;10.18;7.00;;;;;;;;;;5102294;28;20057;-75
2022/07/25 17:58:48;;;;;;;7.53;6.40;;;;;;;;;;5106972;28;20028;-78
2022/07/25 18:01:15;;;;;;;9.05;6.60;;;;;;;;;;5106282;28;20066;-75
2022/07/25 18:03:41;;;;;;;9.88;6.78;;;;;;;;;;5105396;28;20016;-72
2022/07/25 18:06:07;;;;;;;15.48;6.82;;;;;;;;;;5109336;28;20495;-74
2022/07/25 18:08:34;;;;;;;16.73;7.65;;;;;;;;;;5108407;28;20024;-75
2022/07/25 18:11:02;;;;;;;11.38;6.32;;;;;;;;;;5098462;28;20115;-74
2022/07/25 18:13:28;;;;;;;12.07;6.57;;;;;;;;;;5109802;28;20080;-74
2022/07/25 18:15:54;;;;;;;16.58;6.95;;;;;;;;;;5094008;28;20036;-72
2022/07/25 18:18:44;;;;;;;15.93;6.65;;;;;;;;;;5110269;28;20024;-72
2022/07/25 18:21:12;;;;;;;13.77;6.65;;;;;;;;;;5098248;28;20432;-72
2022/07/25 18:23:38;;;;;;;37.92;9.20;;;;;;;;;;5090707;27;20072;-72
2022/07/25 18:26:04;;;;;;;15.90;7.43;;;;;;;;;;5108788;28;20020;-72
2022/07/25 18:28:30;;;;;;;16.50;7.35;;;;;;;;;;5107286;28;20020;-74
2022/07/25 18:30:56;;;;;;;14.38;6.55;;;;;;;;;;5100538;28;20031;-75
2022/07/25 18:33:22;;;;;;;10.82;7.18;;;;;;;;;;5103089;28;20066;-76
2022/07/25 18:35:50;;;;;;;13.55;7.32;;;;;;;;;;5108919;28;20035;-77
2022/07/25 18:38:16;;;;;;;11.38;6.88;;;;;;;;;;5107008;28;20019;-77
2022/07/25 18:40:42;;;;;;;9.68;6.95;;;;;;;;;;5108327;28;20027;-74
2022/07/25 18:43:08;;;;;;;13.15;9.45;;;;;;;;;;5103664;28;20456;-75
2022/07/25 18:49:06;;;;;;;21.85;9.38;;;;;;;;;;5039063;28;20213;-72
2022/07/25 18:51:35;;;;;;;14.75;9.00;;;;;;;;;;5046094;28;20036;-71
2022/07/25 18:54:01;;;;;;;11.45;7.80;;;;;;;;;;5034189;28;20036;-72
2022/07/25 18:56:27;;;;;;;31.25;8.85;;;;;;;;;;5045185;28;20486;-72
2022/07/25 19:01:51;;;;;;;14.50;7.53;;;;;;;;;;5040182;28;20052;-73
2022/07/25 19:04:17;;;;;;;10.13;7.00;;;;;;;;;;5041582;28;20036;-71
2022/07/25 19:06:43;;;;;;;12.25;7.60;;;;;;;;;;5037114;28;21025;-72
2022/07/25 19:09:09;;;;;;;11.68;7.20;;;;;;;;;;5045393;28;20033;-75
2022/07/25 19:11:36;;;;;;;10.05;7.40;;;;;;;;;;5043876;28;20073;-75
2022/07/25 19:14:02;;;;;;;11.13;7.13;;;;;;;;;;5043353;28;20059;-75
2022/07/25 19:16:28;;;;;;;16.48;7.05;;;;;;;;;;5043641;28;20060;-75
2022/07/25 19:18:54;;;;;;;16.70;7.63;;;;;;;;;;5047882;28;20048;-77
2022/07/25 19:21:20;;;;;;;21.40;7.47;;;;;;;;;;5041373;28;20577;-73
2022/07/25 19:23:46;;;;;;;13.07;7.07;;;;;;;;;;5047435;28;20105;-74
2022/07/25 19:26:13;;;;;;;9.82;6.93;;;;;;;;;;5092135;28;20055;-74
2022/07/25 19:28:39;;;;;;;9.15;7.05;;;;;;;;;;5097829;28;20020;-73
2022/07/25 19:31:07;;;;;;;10.13;7.40;;;;;;;;;;5107969;28;20058;-73
2022/07/25 19:33:33;;;;;;;12.25;7.90;;;;;;;;;;5097872;28;20020;-74
2022/07/25 19:35:59;;;;;;;29.58;8.27;;;;;;;;;;5104628;28;20769;-76
2022/07/25 19:38:25;;;;;;;28.80;8.50;;;;;;;;;;5107118;28;20028;-75
2022/07/25 19:40:51;;;;;;;14.20;7.45;;;;;;;;;;5103524;28;20023;-75
2022/07/25 19:43:17;;;;;;;15.68;8.43;;;;;;;;;;5098381;28;20481;-77
2022/07/25 19:45:43;;;;;;;8.70;7.07;;;;;;;;;;5104390;28;20052;-75
2022/07/25 19:48:10;;;;;;;9.50;7.35;;;;;;;;;;5080679;28;20063;-77
2022/07/25 19:50:36;;;;;;;10.18;7.65;;;;;;;;;;5099673;28;20022;-75
2022/07/25 19:53:02;;;;;;;14.70;7.72;;;;;;;;;;5102270;28;20028;-77
2022/07/25 19:55:28;;;;;;;14.38;7.57;;;;;;;;;;5104030;28;20044;-76
2022/07/25 19:57:54;;;;;;;11.88;7.18;;;;;;;;;;5093613;27;20032;-74
2022/07/25 20:00:21;;;;;;;10.00;7.82;;;;;;;;;;5106592;28;20111;-71
2022/07/25 20:02:47;;;;;;;11.93;7.35;;;;;;;;;;5108496;28;20028;-72
2022/07/25 20:05:13;;;;;;;10.98;7.15;;;;;;;;;;5103168;28;20031;-73